Time;durP1;ratioP1;P1;durP2;ratioP2;P2;SDS_P1;SDS_P2;PMS_P1;PMS_P2;Temp;Humidity;BMP_temperature;BMP_pressure;BME280_temperature;BME280_humidity;BME280_pressure;Samples;Min_cycle;Max_cycle;Signal;HPM_P1;HPM_P2
2022/11/28 00:00:11;;;;;;;7.05;5.32;;;;;;;6.74;69.80;99413.84;343043;28;1922;-69
2022/11/28 00:00:24;;;;;;;7.70;5.38;;;;;;;6.74;69.63;99413.84;343466;28;1768;-70
2022/11/28 00:00:36;;;;;;;8.02;5.38;;;;;;;6.76;69.72;99417.25;342847;28;1913;-70
2022/11/28 00:00:51;;;;;;;7.88;5.40;;;;;;;6.76;69.49;99412.06;344434;28;1067;-69
2022/11/28 00:01:05;;;;;;;7.93;5.50;;;;;;;6.76;69.17;99412.06;345282;28;1043;-70
2022/11/28 00:01:22;;;;;;;8.60;5.72;;;;;;;6.76;69.33;99414.66;345071;28;1268;-69
2022/11/28 00:01:36;;;;;;;7.68;5.40;;;;;;;6.75;69.80;99415.53;344199;28;1831;-70
2022/11/28 00:01:48;;;;;;;7.30;5.15;;;;;;;6.73;69.38;99412.13;343975;28;1806;-70
2022/11/28 00:02:00;;;;;;;7.53;5.40;;;;;;;6.70;69.30;99413.91;343134;28;1804;-70
2022/11/28 00:02:12;;;;;;;8.07;5.70;;;;;;;6.72;69.77;99415.59;343861;28;1603;-70
2022/11/28 00:02:24;;;;;;;7.88;5.65;;;;;;;6.73;69.43;99419.88;343468;28;1336;-70
2022/11/28 00:02:37;;;;;;;8.20;5.50;;;;;;;6.69;69.75;99426.00;343476;28;2206;-70
2022/11/28 00:02:49;;;;;;;8.27;5.75;;;;;;;6.70;69.46;99422.53;345038;28;1090;-69
2022/11/28 00:03:01;;;;;;;7.70;5.63;;;;;;;6.71;69.75;99421.63;346017;28;725;-70
2022/11/28 00:03:13;;;;;;;7.60;5.47;;;;;;;6.73;69.73;99427.63;344792;28;1216;-70
2022/11/28 00:03:26;;;;;;;7.28;5.53;;;;;;;6.75;69.79;99428.44;344035;28;767;-70
2022/11/28 00:03:38;;;;;;;7.45;5.65;;;;;;;6.76;69.72;99425.00;343819;28;1135;-69
2022/11/28 00:03:50;;;;;;;7.57;5.40;;;;;;;6.75;68.98;99428.44;344099;28;733;-70
2022/11/28 00:04:04;;;;;;;7.32;5.30;;;;;;;6.76;69.17;99430.16;343544;28;1055;-70
2022/11/28 00:04:17;;;;;;;7.13;5.43;;;;;;;6.78;69.12;99428.41;343755;28;1330;-70
2022/11/28 00:04:29;;;;;;;7.18;5.55;;;;;;;6.80;69.51;99428.34;343766;28;1031;-70
2022/11/28 00:04:41;;;;;;;6.55;5.30;;;;;;;6.74;69.31;99429.34;342824;28;1981;-70
2022/11/28 00:04:53;;;;;;;6.72;5.25;;;;;;;6.73;69.74;99430.22;343445;28;1333;-70
2022/11/28 00:05:08;;;;;;;7.47;5.45;;;;;;;6.75;69.56;99431.03;343243;28;2155;-69
2022/11/28 00:05:20;;;;;;;7.20;5.50;;;;;;;6.75;69.51;99425.84;343543;28;1287;-70
2022/11/28 00:05:34;;;;;;;6.95;5.32;;;;;;;6.74;69.92;99431.94;343834;28;1019;-70
2022/11/28 00:05:47;;;;;;;7.47;5.47;;;;;;;6.69;69.42;99431.16;343843;28;944;-70
2022/11/28 00:06:08;;;;;;;7.82;5.60;;;;;;;6.70;69.70;99427.72;343774;28;1154;-70
2022/11/28 00:06:21;;;;;;;8.30;5.43;;;;;;;6.69;69.78;99433.75;344269;28;1319;-69
2022/11/28 00:06:36;;;;;;;8.25;5.47;;;;;;;6.68;69.55;99432.06;344787;28;1489;-69
2022/11/28 00:06:49;;;;;;;7.22;5.47;;;;;;;6.69;69.41;99431.16;345057;28;1099;-70
2022/11/28 00:07:01;;;;;;;7.38;5.47;;;;;;;6.61;69.76;99430.47;343609;28;1053;-70
2022/11/28 00:07:14;;;;;;;8.88;5.50;;;;;;;6.49;70.05;99433.28;343647;28;1364;-70
2022/11/28 00:07:26;;;;;;;8.43;5.65;;;;;;;6.55;70.20;99425.41;343385;28;1155;-70
2022/11/28 00:07:38;;;;;;;8.25;5.72;;;;;;;6.57;70.17;99421.91;342401;28;1057;-69
2022/11/28 00:07:50;;;;;;;7.88;5.63;;;;;;;6.57;70.21;99431.41;341806;28;1578;-70
2022/11/28 00:08:03;;;;;;;8.07;5.40;;;;;;;6.58;70.47;99427.97;341698;28;1706;-70
2022/11/28 00:08:15;;;;;;;7.55;5.55;;;;;;;6.56;69.62;99429.69;340931;28;1290;-70
2022/11/28 00:08:27;;;;;;;7.65;5.78;;;;;;;6.55;69.54;99422.84;340325;28;1789;-70
2022/11/28 00:08:39;;;;;;;7.63;5.82;;;;;;;6.56;70.29;99424.53;341272;29;1084;-70
2022/11/28 00:08:51;;;;;;;7.70;5.80;;;;;;;6.57;69.93;99432.25;341309;29;2036;-70
2022/11/28 00:09:03;;;;;;;7.95;5.80;;;;;;;6.59;69.74;99429.63;340150;28;2261;-69
2022/11/28 00:09:17;;;;;;;8.48;6.10;;;;;;;6.59;69.96;99427.91;341043;29;1045;-69
2022/11/28 00:09:30;;;;;;;8.77;6.03;;;;;;;6.62;70.43;99424.44;341580;28;1109;-70
2022/11/28 00:09:41;;;;;;;8.30;5.78;;;;;;;6.62;69.81;99424.44;342415;28;1164;-70
2022/11/28 00:09:54;;;;;;;7.75;5.50;;;;;;;6.63;70.10;99418.38;342742;28;1170;-70
2022/11/28 00:10:06;;;;;;;7.43;5.30;;;;;;;6.65;69.98;99424.34;341782;28;1879;-70
2022/11/28 00:10:18;;;;;;;7.55;5.40;;;;;;;6.68;69.79;99424.31;343016;28;1522;-69
2022/11/28 00:10:31;;;;;;;7.82;5.35;;;;;;;6.67;70.51;99422.59;343804;28;1172;-69
2022/11/28 00:10:43;;;;;;;7.85;5.13;;;;;;;6.63;69.90;99420.94;343528;28;1188;-70
2022/11/28 00:10:55;;;;;;;7.55;5.22;;;;;;;6.63;70.19;99423.53;341847;28;2011;-70
2022/11/28 00:11:11;;;;;;;7.13;5.32;;;;;;;6.60;70.43;99426.19;342883;28;1566;-70
2022/11/28 00:11:23;;;;;;;7.35;5.60;;;;;;;6.62;70.34;99418.38;344527;28;2056;-70
2022/11/28 00:11:35;;;;;;;7.20;5.57;;;;;;;6.61;70.34;99420.13;342711;28;1376;-70
2022/11/28 00:11:47;;;;;;;7.28;5.55;;;;;;;6.60;70.26;99421.88;342171;28;1020;-70
2022/11/28 00:12:00;;;;;;;7.68;5.63;;;;;;;6.58;69.98;99418.47;341196;29;1056;-69
2022/11/28 00:12:12;;;;;;;7.28;5.68;;;;;;;6.60;70.46;99415.88;340892;28;1124;-69
2022/11/28 00:12:25;;;;;;;6.93;5.60;;;;;;;6.61;69.93;99417.53;341668;28;2092;-70
2022/11/28 00:12:38;;;;;;;6.93;5.40;;;;;;;6.62;69.61;99416.69;342666;28;1086;-70
2022/11/28 00:12:50;;;;;;;6.97;5.32;;;;;;;6.63;70.28;99410.63;342459;28;1318;-70
2022/11/28 00:13:02;;;;;;;9.38;5.53;;;;;;;6.62;69.97;99411.50;341670;28;1706;-70
2022/11/28 00:13:15;;;;;;;9.57;5.63;;;;;;;6.62;69.97;99419.25;342096;28;1490;-70
2022/11/28 00:13:27;;;;;;;9.48;5.85;;;;;;;6.63;70.26;99420.94;342439;28;1550;-70
2022/11/28 00:13:40;;;;;;;7.78;5.70;;;;;;;6.63;70.29;99420.94;342943;28;1032;-69
2022/11/28 00:13:53;;;;;;;7.78;5.50;;;;;;;6.63;70.24;99410.63;343653;28;1106;-69
2022/11/28 00:14:05;;;;;;;7.50;5.32;;;;;;;6.65;70.41;99416.59;342133;28;1160;-69
2022/11/28 00:14:18;;;;;;;7.15;5.40;;;;;;;6.66;69.95;99415.75;341133;28;1479;-70
2022/11/28 00:14:30;;;;;;;7.78;5.70;;;;;;;6.67;70.05;99414.84;341646;28;1904;-70
2022/11/28 00:14:42;;;;;;;8.20;5.97;;;;;;;6.66;69.85;99420.91;340896;28;1884;-70
2022/11/28 00:14:54;;;;;;;7.72;5.72;;;;;;;6.63;70.13;99415.78;342738;28;1869;-70
2022/11/28 00:15:07;;;;;;;7.68;5.57;;;;;;;6.57;70.06;99415.91;342004;28;1826;-70
2022/11/28 00:15:19;;;;;;;7.78;5.70;;;;;;;6.58;69.49;99412.47;342713;28;1890;-70
2022/11/28 00:15:31;;;;;;;7.63;5.85;;;;;;;6.54;69.87;99410.78;342351;28;1649;-70
2022/11/28 00:15:43;;;;;;;7.95;5.70;;;;;;;6.56;70.34;99414.19;343561;28;1394;-70
2022/11/28 00:16:00;;;;;;;8.25;5.65;;;;;;;6.57;69.91;99421.06;343129;28;2046;-70
2022/11/28 00:16:16;;;;;;;7.95;5.75;;;;;;;6.58;70.36;99408.13;345119;28;1040;-69
2022/11/28 00:16:28;;;;;;;7.72;5.70;;;;;;;6.58;69.90;99413.31;343377;28;1021;-70
2022/11/28 00:16:41;;;;;;;7.72;5.68;;;;;;;6.59;70.24;99420.16;343474;28;1865;-69
2022/11/28 00:16:53;;;;;;;7.10;5.53;;;;;;;6.62;70.51;99415.81;342687;28;1025;-69
2022/11/28 00:17:05;;;;;;;7.28;5.47;;;;;;;6.61;69.90;99417.53;342497;28;1070;-70
2022/11/28 00:17:17;;;;;;;7.55;5.43;;;;;;;6.62;70.37;99419.25;342256;28;1290;-70
2022/11/28 00:17:29;;;;;;;7.32;5.65;;;;;;;6.55;70.34;99423.69;342884;28;1836;-70
2022/11/28 00:17:41;;;;;;;8.13;5.68;;;;;;;6.48;70.36;99419.53;343928;28;1559;-70
2022/11/28 00:17:53;;;;;;;7.85;5.60;;;;;;;6.42;70.03;99423.94;343049;28;1231;-70
2022/11/28 00:18:05;;;;;;;7.93;5.45;;;;;;;6.45;70.70;99418.75;342165;28;1244;-70
2022/11/28 00:18:17;;;;;;;7.85;5.40;;;;;;;6.45;70.87;99413.56;342214;28;2473;-69
2022/11/28 00:18:30;;;;;;;7.88;5.40;;;;;;;6.42;70.40;99417.06;342538;28;1700;-70
2022/11/28 00:18:42;;;;;;;7.85;5.60;;;;;;;6.44;70.45;99417.03;342228;28;1112;-70
2022/11/28 00:18:54;;;;;;;8.05;5.78;;;;;;;6.46;70.21;99415.25;340383;29;1757;-70
2022/11/28 00:19:07;;;;;;;7.50;5.60;;;;;;;6.49;70.55;99417.78;340591;28;1408;-70
2022/11/28 00:19:19;;;;;;;8.07;5.68;;;;;;;6.51;70.41;99416.88;340707;29;1816;-70
2022/11/28 00:19:31;;;;;;;8.73;5.70;;;;;;;6.47;70.58;99414.41;340922;29;1190;-70
2022/11/28 00:19:43;;;;;;;8.63;5.75;;;;;;;6.49;70.56;99417.78;340903;29;1347;-70
2022/11/28 00:19:55;;;;;;;7.57;5.70;;;;;;;6.51;70.21;99410.88;339789;29;1937;-70
2022/11/28 00:20:08;;;;;;;7.35;5.60;;;;;;;6.51;70.65;99410.88;339650;29;1106;-70
2022/11/28 00:20:20;;;;;;;7.68;5.47;;;;;;;6.53;70.53;99409.09;339107;29;1841;-70
2022/11/28 00:20:32;;;;;;;8.10;5.68;;;;;;;6.54;70.76;99413.38;339291;29;1913;-70
2022/11/28 00:20:44;;;;;;;8.05;5.70;;;;;;;6.53;70.15;99409.94;341296;28;1270;-70
2022/11/28 00:21:05;;;;;;;8.07;5.78;;;;;;;6.54;70.35;99410.78;341285;28;1893;-70
2022/11/28 00:21:17;;;;;;;7.93;5.65;;;;;;;6.51;70.40;99403.97;340928;28;1366;-70
2022/11/28 00:21:30;;;;;;;7.75;5.60;;;;;;;6.51;70.71;99410.88;341345;29;750;-70
2022/11/28 00:21:42;;;;;;;7.68;5.63;;;;;;;6.54;70.45;99410.78;341263;28;1314;-70
2022/11/28 00:21:54;;;;;;;7.88;5.68;;;;;;;6.52;70.40;99408.25;342845;28;1597;-70
2022/11/28 00:22:06;;;;;;;8.75;5.80;;;;;;;6.50;70.00;99407.44;341292;28;1692;-70
2022/11/28 00:22:19;;;;;;;8.93;5.72;;;;;;;6.40;70.06;99404.19;344053;28;1878;-70
2022/11/28 00:22:30;;;;;;;8.10;5.60;;;;;;;6.44;70.22;99404.97;343580;28;1238;-70
2022/11/28 00:22:42;;;;;;;8.45;5.47;;;;;;;6.41;70.58;99402.44;343615;28;1155;-70
2022/11/28 00:22:54;;;;;;;9.02;5.75;;;;;;;6.42;70.72;99401.59;343525;28;1135;-70
2022/11/28 00:23:06;;;;;;;9.30;5.78;;;;;;;6.40;70.67;99403.34;343020;28;1149;-70
2022/11/28 00:23:18;;;;;;;8.32;5.80;;;;;;;6.42;70.51;99408.47;342461;28;2217;-70
2022/11/28 00:23:32;;;;;;;8.50;5.70;;;;;;;6.44;70.25;99404.09;342372;28;1064;-70
2022/11/28 00:23:46;;;;;;;8.65;5.93;;;;;;;6.37;70.76;99409.41;343754;28;1055;-70
2022/11/28 00:23:59;;;;;;;7.82;5.65;;;;;;;6.35;70.29;99411.16;343770;28;1979;-70
2022/11/28 00:24:11;;;;;;;7.88;5.55;;;;;;;6.33;70.94;99412.91;343419;28;1716;-70
2022/11/28 00:24:25;;;;;;;7.85;5.60;;;;;;;6.33;71.13;99405.19;343444;28;1257;-70
2022/11/28 00:24:38;;;;;;;7.50;5.30;;;;;;;6.32;70.22;99406.06;344276;28;814;-70
2022/11/28 00:24:50;;;;;;;7.32;5.28;;;;;;;6.11;69.61;99406.47;343364;28;1213;-70
2022/11/28 00:25:03;;;;;;;7.68;5.43;;;;;;;6.13;69.45;99412.44;343540;28;1324;-69
2022/11/28 00:25:15;;;;;;;7.18;5.40;;;;;;;6.12;69.50;99408.19;342821;28;1879;-70
2022/11/28 00:25:27;;;;;;;7.38;5.40;;;;;;;6.06;69.48;99410.88;342764;28;1641;-70
2022/11/28 00:25:39;;;;;;;7.07;5.30;;;;;;;5.99;70.45;99403.22;342807;28;1945;-70
2022/11/28 00:25:58;;;;;;;7.18;5.50;;;;;;;5.87;70.25;99403.41;342436;28;1126;-70
2022/11/28 00:26:13;;;;;;;7.57;5.65;;;;;;;5.85;70.31;99400.00;343570;28;966;-70
2022/11/28 00:26:28;;;;;;;7.32;5.63;;;;;;;5.79;70.10;99400.09;344190;28;1315;-70
2022/11/28 00:26:41;;;;;;;7.13;5.75;;;;;;;5.83;69.89;99399.19;345044;28;1091;-70
2022/11/28 00:26:53;;;;;;;7.30;5.63;;;;;;;5.85;70.71;99404.31;344997;28;1198;-69
2022/11/28 00:27:05;;;;;;;8.05;5.57;;;;;;;5.81;70.50;99393.19;345849;28;1136;-69
2022/11/28 00:27:17;;;;;;;8.50;5.80;;;;;;;5.78;71.61;99398.41;345112;28;1367;-70
2022/11/28 00:27:29;;;;;;;7.72;5.78;;;;;;;5.78;70.86;99398.41;343616;28;1894;-70
2022/11/28 00:27:41;;;;;;;8.35;5.85;;;;;;;5.77;71.71;99402.69;343706;28;1732;-70
2022/11/28 00:27:53;;;;;;;8.40;5.75;;;;;;;5.76;71.82;99405.34;345237;28;1294;-69
2022/11/28 00:28:05;;;;;;;8.90;5.97;;;;;;;5.79;71.65;99400.97;345070;28;1166;-69
2022/11/28 00:28:17;;;;;;;7.97;5.90;;;;;;;5.80;71.97;99399.25;344878;28;1272;-70
2022/11/28 00:28:28;;;;;;;7.40;5.65;;;;;;;5.73;71.77;99406.22;344888;28;1062;-70
2022/11/28 00:28:41;;;;;;;6.75;5.32;;;;;;;5.70;71.19;99398.53;343550;28;1273;-69
2022/11/28 00:28:54;;;;;;;7.00;5.50;;;;;;;5.72;71.91;99399.38;343565;28;1048;-70
2022/11/28 00:29:07;;;;;;;7.13;5.45;;;;;;;5.68;71.46;99402.88;343151;28;1704;-69
2022/11/28 00:29:19;;;;;;;7.25;5.50;;;;;;;5.72;71.56;99403.69;343898;28;1633;-70
2022/11/28 00:29:31;;;;;;;7.45;5.53;;;;;;;5.76;71.95;99402.75;343789;28;1744;-70
2022/11/28 00:29:43;;;;;;;8.02;5.75;;;;;;;5.79;71.80;99405.25;344099;28;1204;-70
2022/11/28 00:29:55;;;;;;;8.23;5.93;;;;;;;5.83;71.51;99406.06;343811;28;1339;-70
2022/11/28 00:30:08;;;;;;;7.90;5.88;;;;;;;5.86;71.91;99406.88;343151;28;1763;-72
2022/11/28 00:30:20;;;;;;;9.00;5.80;;;;;;;5.89;71.87;99406.81;342386;28;1492;-72
2022/11/28 00:30:36;;;;;;;8.80;5.63;;;;;;;5.94;71.67;99404.16;342686;28;1262;-72
2022/11/28 00:30:48;;;;;;;8.55;5.72;;;;;;;5.96;71.80;99405.88;344078;28;1840;-70
2022/11/28 00:31:00;;;;;;;8.45;6.18;;;;;;;5.97;71.80;99404.97;342879;28;1260;-70
2022/11/28 00:31:18;;;;;;;8.35;6.07;;;;;;;5.91;71.47;99405.06;342161;28;1082;-70
2022/11/28 00:31:40;;;;;;;8.02;5.68;;;;;;;5.94;71.50;99404.16;341287;29;2167;-70
2022/11/28 00:31:53;;;;;;;7.57;5.60;;;;;;;5.97;71.47;99402.41;341146;28;1238;-70
2022/11/28 00:32:05;;;;;;;7.75;5.53;;;;;;;5.95;71.29;99399.00;341367;29;1163;-70
2022/11/28 00:32:18;;;;;;;7.75;5.60;;;;;;;5.95;70.89;99406.72;342270;28;2915;-70
2022/11/28 00:32:30;;;;;;;10.15;5.88;;;;;;;5.97;71.07;99404.97;342303;28;1259;-70
2022/11/28 00:32:42;;;;;;;9.70;5.72;;;;;;;5.98;71.56;99401.53;341479;28;2950;-70
2022/11/28 00:32:54;;;;;;;9.05;5.97;;;;;;;5.99;71.08;99402.38;342545;28;1202;-70
2022/11/28 00:33:06;;;;;;;8.25;5.78;;;;;;;6.00;71.25;99404.94;343278;28;1200;-70
2022/11/28 00:33:18;;;;;;;7.97;5.72;;;;;;;6.04;71.79;99400.56;343341;28;1343;-70
2022/11/28 00:33:32;;;;;;;7.22;5.70;;;;;;;6.06;71.30;99409.13;342508;28;1063;-70
2022/11/28 00:33:44;;;;;;;8.52;5.78;;;;;;;6.09;71.70;99408.22;342395;28;1156;-70
2022/11/28 00:33:57;;;;;;;8.70;5.65;;;;;;;6.10;71.53;99399.63;340936;29;1060;-70
2022/11/28 00:34:11;;;;;;;8.55;5.68;;;;;;;6.08;71.90;99406.53;340992;29;1180;-70
2022/11/28 00:34:23;;;;;;;8.27;5.95;;;;;;;6.09;71.53;99409.06;341031;29;1289;-70
2022/11/28 00:34:36;;;;;;;8.23;5.75;;;;;;;6.09;71.61;99403.91;342376;28;856;-70
2022/11/28 00:34:48;;;;;;;8.73;6.03;;;;;;;6.11;71.92;99406.47;341624;28;1651;-70
2022/11/28 00:35:00;;;;;;;8.65;5.97;;;;;;;6.10;71.76;99407.34;343946;28;1569;-70
2022/11/28 00:35:13;;;;;;;7.60;5.78;;;;;;;6.07;71.49;99405.66;342733;28;2292;-70
2022/11/28 00:35:25;;;;;;;8.05;5.75;;;;;;;6.08;71.44;99407.38;343842;28;1236;-69
2022/11/28 00:35:37;;;;;;;7.53;5.68;;;;;;;6.07;71.85;99405.66;342198;28;1302;-69
2022/11/28 00:35:49;;;;;;;7.78;5.80;;;;;;;6.09;72.00;99403.06;343122;28;1243;-70
2022/11/28 00:36:03;;;;;;;6.93;5.70;;;;;;;6.12;71.94;99408.19;344442;28;1051;-70
2022/11/28 00:36:16;;;;;;;6.93;5.70;;;;;;;6.13;71.72;99404.72;346753;28;808;-70
2022/11/28 00:36:29;;;;;;;7.32;5.60;;;;;;;6.14;71.74;99411.59;344697;28;1345;-70
2022/11/28 00:36:44;;;;;;;7.80;5.55;;;;;;;6.15;72.27;99408.09;344892;28;1184;-70
2022/11/28 00:36:56;;;;;;;10.18;5.90;;;;;;;6.15;72.20;99402.94;346051;28;1374;-70
2022/11/28 00:37:08;;;;;;;10.57;6.05;;;;;;;6.15;71.72;99401.22;346338;28;1222;-70
2022/11/28 00:37:20;;;;;;;9.32;5.78;;;;;;;6.14;72.04;99399.53;346694;28;1291;-69
2022/11/28 00:37:32;;;;;;;7.60;5.47;;;;;;;6.17;71.82;99401.19;346914;28;1058;-70
2022/11/28 00:37:44;;;;;;;7.95;5.55;;;;;;;6.15;72.04;99402.94;346433;28;1050;-70
2022/11/28 00:37:56;;;;;;;8.27;5.82;;;;;;;6.06;72.10;99403.13;346679;28;987;-70
2022/11/28 00:38:08;;;;;;;8.55;6.00;;;;;;;6.05;72.16;99407.41;345349;28;1828;-70
2022/11/28 00:38:20;;;;;;;8.10;5.97;;;;;;;5.98;72.94;99411.00;344166;28;1711;-70
2022/11/28 00:38:32;;;;;;;8.95;6.20;;;;;;;5.99;73.35;99405.78;343723;28;1204;-70
2022/11/28 00:38:44;;;;;;;9.18;6.35;;;;;;;6.00;72.36;99406.66;342060;28;1517;-70
2022/11/28 00:38:56;;;;;;;8.35;6.10;;;;;;;5.96;72.42;99405.88;342388;28;1036;-70
2022/11/28 00:39:08;;;;;;;7.97;5.97;;;;;;;5.95;73.13;99406.72;341552;28;1715;-70
2022/11/28 00:39:21;;;;;;;9.95;6.05;;;;;;;5.97;73.25;99398.97;342477;28;1488;-70
2022/11/28 00:39:33;;;;;;;10.48;6.00;;;;;;;5.97;72.88;99397.22;342330;28;1158;-70
2022/11/28 00:39:46;;;;;;;10.75;6.05;;;;;;;5.91;72.88;99402.47;342195;28;1809;-70
2022/11/28 00:39:58;;;;;;;9.57;6.10;;;;;;;5.95;73.14;99401.56;342419;28;1188;-70
2022/11/28 00:40:10;;;;;;;8.85;5.95;;;;;;;5.93;73.38;99398.13;342653;28;1005;-70
2022/11/28 00:40:22;;;;;;;8.70;5.90;;;;;;;5.92;72.72;99396.44;341511;28;1325;-70
2022/11/28 00:40:34;;;;;;;8.30;6.00;;;;;;;5.86;73.43;99396.56;342248;28;1064;-70
2022/11/28 00:40:46;;;;;;;7.93;6.03;;;;;;;5.83;73.55;99401.75;339763;28;1848;-70
2022/11/28 00:41:03;;;;;;;8.48;6.00;;;;;;;5.76;73.92;99395.88;340865;29;1110;-70
2022/11/28 00:41:18;;;;;;;8.98;6.03;;;;;;;5.78;73.80;99399.25;341315;28;2002;-70
2022/11/28 00:41:33;;;;;;;8.65;6.22;;;;;;;5.81;73.87;99403.50;342019;28;1190;-70
2022/11/28 00:41:45;;;;;;;8.20;6.13;;;;;;;5.86;73.29;99403.44;340988;28;2152;-70
2022/11/28 00:41:57;;;;;;;8.05;6.13;;;;;;;5.84;73.90;99403.47;342204;28;1059;-70
2022/11/28 00:42:09;;;;;;;7.95;5.95;;;;;;;5.77;73.29;99396.69;341281;28;1763;-70
2022/11/28 00:42:21;;;;;;;8.23;6.10;;;;;;;5.80;73.86;99396.66;341494;28;1977;-70
2022/11/28 00:42:33;;;;;;;8.73;6.07;;;;;;;5.84;74.12;99408.63;342429;28;1020;-70
2022/11/28 00:42:45;;;;;;;8.45;5.75;;;;;;;5.86;72.79;99406.03;343201;28;1178;-70
2022/11/28 00:42:57;;;;;;;8.20;5.75;;;;;;;5.87;73.45;99397.41;343907;28;1111;-70
2022/11/28 00:43:11;;;;;;;7.80;5.93;;;;;;;5.88;73.34;99399.97;343770;28;2110;-70
2022/11/28 00:43:23;;;;;;;7.78;6.07;;;;;;;5.86;72.92;99401.72;344673;28;1324;-70
2022/11/28 00:43:36;;;;;;;8.35;6.03;;;;;;;5.84;73.05;99403.47;344820;28;1051;-70
2022/11/28 00:43:49;;;;;;;8.65;6.00;;;;;;;5.87;73.36;99397.41;344915;28;1044;-70
2022/11/28 00:44:01;;;;;;;8.20;5.88;;;;;;;5.87;73.08;99399.97;343370;28;1834;-70
2022/11/28 00:44:13;;;;;;;8.20;5.80;;;;;;;5.84;73.25;99403.47;344641;28;1825;-70
2022/11/28 00:44:25;;;;;;;7.47;5.85;;;;;;;5.85;73.09;99400.00;344867;28;1565;-70
2022/11/28 00:44:37;;;;;;;7.22;5.93;;;;;;;5.88;72.74;99399.97;345140;28;1286;-69
2022/11/28 00:44:49;;;;;;;6.60;5.65;;;;;;;5.89;73.45;99396.50;343883;28;1597;-70
2022/11/28 00:45:01;;;;;;;6.72;5.53;;;;;;;5.91;72.77;99394.72;345384;28;1079;-70
2022/11/28 00:45:13;;;;;;;7.32;5.78;;;;;;;5.92;72.45;99396.44;343686;28;1806;-70
2022/11/28 00:45:26;;;;;;;7.20;5.63;;;;;;;5.91;73.45;99405.06;345167;28;1138;-70
2022/11/28 00:45:38;;;;;;;7.93;5.97;;;;;;;5.88;73.05;99399.97;344113;28;1641;-70
2022/11/28 00:45:50;;;;;;;8.02;5.93;;;;;;;5.90;72.98;99398.19;344389;28;1668;-70
2022/11/28 00:46:03;;;;;;;8.00;5.82;;;;;;;5.93;73.14;99398.13;344172;28;1615;-70
2022/11/28 00:46:16;;;;;;;7.88;5.70;;;;;;;5.95;73.31;99400.72;343320;28;1523;-70
2022/11/28 00:46:28;;;;;;;8.18;5.55;;;;;;;5.94;73.16;99399.84;343545;28;1085;-69
2022/11/28 00:46:41;;;;;;;8.57;5.60;;;;;;;5.97;72.50;99397.22;343532;28;1057;-70
2022/11/28 00:46:53;;;;;;;8.68;5.63;;;;;;;5.98;72.93;99401.53;343308;28;1250;-70
2022/11/28 00:47:05;;;;;;;8.45;5.70;;;;;;;6.00;73.03;99394.63;343596;28;1223;-70
2022/11/28 00:47:17;;;;;;;8.27;5.82;;;;;;;6.02;72.58;99402.34;343837;28;1348;-72
2022/11/28 00:47:29;;;;;;;8.57;5.90;;;;;;;5.97;72.20;99399.81;342899;28;1754;-72
2022/11/28 00:47:41;;;;;;;8.32;6.00;;;;;;;6.00;72.45;99402.34;343800;28;1297;-72
2022/11/28 00:47:53;;;;;;;8.40;5.95;;;;;;;6.02;72.30;99396.28;343555;28;1390;-72
2022/11/28 00:48:05;;;;;;;7.90;5.78;;;;;;;6.03;72.54;99396.28;343234;28;1251;-70
2022/11/28 00:48:17;;;;;;;8.18;5.78;;;;;;;6.04;72.64;99402.28;343514;28;1277;-70
2022/11/28 00:48:30;;;;;;;7.93;5.65;;;;;;;6.06;72.81;99397.97;342619;28;1881;-70
2022/11/28 00:48:42;;;;;;;8.02;5.50;;;;;;;6.05;72.21;99401.41;343568;28;1795;-70
2022/11/28 00:48:56;;;;;;;8.85;5.72;;;;;;;6.07;72.86;99404.81;343430;28;1051;-70
2022/11/28 00:49:08;;;;;;;8.53;5.83;;;;;;;6.07;72.82;99405.66;342757;28;1705;-70
2022/11/28 00:49:20;;;;;;;8.00;5.93;;;;;;;6.08;72.79;99402.22;343465;28;1300;-70
2022/11/28 00:49:32;;;;;;;7.78;5.75;;;;;;;6.09;72.02;99397.91;343741;28;1081;-70
2022/11/28 00:49:44;;;;;;;9.05;5.70;;;;;;;6.09;72.16;99403.06;342125;28;1956;-69
2022/11/28 00:49:56;;;;;;;9.30;5.60;;;;;;;6.09;72.41;99397.91;342315;28;1084;-72
2022/11/28 00:50:08;;;;;;;8.70;5.47;;;;;;;6.10;72.76;99399.63;342911;28;2079;-70
2022/11/28 00:50:20;;;;;;;6.93;5.40;;;;;;;6.08;71.99;99401.38;344067;28;1945;-70
2022/11/28 00:50:32;;;;;;;7.82;5.90;;;;;;;5.97;71.68;99404.13;345130;28;1617;-70
2022/11/28 00:50:44;;;;;;;8.52;5.95;;;;;;;5.86;71.39;99406.88;344636;28;1948;-70
2022/11/28 00:51:10;;;;;;;8.88;6.22;;;;;;;5.78;70.39;99408.75;343403;28;1042;-69
2022/11/28 00:51:25;;;;;;;8.07;6.00;;;;;;;5.73;70.50;99406.22;344473;28;1339;-70
2022/11/28 00:51:37;;;;;;;7.68;5.80;;;;;;;5.66;71.28;99402.06;344873;28;1051;-70
2022/11/28 00:51:49;;;;;;;7.78;5.88;;;;;;;5.68;70.92;99402.03;344308;28;2130;-72
2022/11/28 00:52:01;;;;;;;8.23;5.75;;;;;;;5.69;71.31;99398.56;344283;28;1369;-70
2022/11/28 00:52:13;;;;;;;7.90;5.72;;;;;;;5.69;71.19;99401.97;343724;28;1681;-70
2022/11/28 00:52:25;;;;;;;7.88;5.80;;;;;;;5.72;71.78;99401.09;343033;28;1827;-71
2022/11/28 00:52:37;;;;;;;7.63;5.72;;;;;;;5.72;71.80;99396.78;343729;28;1184;-70
2022/11/28 00:52:49;;;;;;;7.68;5.68;;;;;;;5.74;72.15;99400.19;343873;28;1236;-70
2022/11/28 00:53:01;;;;;;;7.93;5.75;;;;;;;5.75;71.86;99398.47;343875;28;1475;-70
2022/11/28 00:53:13;;;;;;;7.90;5.68;;;;;;;5.76;71.92;99401.03;342694;28;1182;-70
2022/11/28 00:53:25;;;;;;;7.40;5.43;;;;;;;5.76;72.21;99400.19;343685;28;1294;-70
2022/11/28 00:53:40;;;;;;;7.43;5.60;;;;;;;5.77;72.29;99397.53;341346;28;1802;-70
2022/11/28 00:53:54;;;;;;;8.55;6.07;;;;;;;5.80;72.22;99391.50;343629;28;1093;-70
2022/11/28 00:54:07;;;;;;;9.20;6.38;;;;;;;5.80;72.73;99399.25;342744;28;1602;-70
2022/11/28 00:54:19;;;;;;;8.60;6.20;;;;;;;5.84;72.38;99403.47;343427;28;1312;-70
2022/11/28 00:54:31;;;;;;;7.45;5.68;;;;;;;5.84;72.44;99403.47;343490;28;1188;-71
2022/11/28 00:54:43;;;;;;;7.18;5.60;;;;;;;5.86;72.36;99406.03;343296;28;1052;-71
2022/11/28 00:54:55;;;;;;;8.00;6.00;;;;;;;5.87;72.65;99398.25;343582;28;1079;-71
2022/11/28 00:55:07;;;;;;;8.05;5.97;;;;;;;5.88;72.27;99397.38;341847;28;1825;-70
2022/11/28 00:55:20;;;;;;;9.23;5.75;;;;;;;5.89;72.47;99396.50;343356;28;1322;-70
2022/11/28 00:55:32;;;;;;;9.77;5.93;;;;;;;5.92;72.35;99400.75;343277;28;1899;-70
2022/11/28 00:55:44;;;;;;;9.52;5.82;;;;;;;5.91;72.71;99388.72;344713;28;1034;-70
2022/11/28 00:55:56;;;;;;;7.83;5.77;;;;;;;5.91;72.30;99397.31;344799;28;1091;-70
2022/11/28 00:56:12;;;;;;;7.65;5.72;;;;;;;5.94;72.26;99399.00;342249;28;1764;-71
2022/11/28 00:56:29;;;;;;;7.70;5.75;;;;;;;5.94;72.80;99393.84;343197;28;1326;-70
2022/11/28 00:56:41;;;;;;;8.13;5.70;;;;;;;5.96;72.33;99403.28;343307;28;1490;-70
2022/11/28 00:56:54;;;;;;;8.27;5.80;;;;;;;5.96;72.15;99395.53;342465;28;1282;-70
2022/11/28 00:57:05;;;;;;;8.23;5.90;;;;;;;5.98;72.14;99393.78;342423;28;1124;-70
2022/11/28 00:57:18;;;;;;;8.93;6.20;;;;;;;5.99;71.90;99392.91;342767;28;1905;-70
2022/11/28 00:57:30;;;;;;;8.80;6.30;;;;;;;5.99;71.81;99392.06;343443;28;1020;-70
2022/11/28 00:57:42;;;;;;;7.53;5.90;;;;;;;5.98;72.26;99396.38;343084;28;2367;-70
2022/11/28 00:57:54;;;;;;;7.35;5.72;;;;;;;6.00;72.29;99398.94;343375;28;1826;-70
2022/11/28 00:58:07;;;;;;;9.38;5.82;;;;;;;5.96;72.55;99398.13;344856;28;1239;-70
2022/11/28 00:58:19;;;;;;;10.05;6.00;;;;;;;5.97;72.17;99394.66;344690;28;1704;-70
2022/11/28 00:58:35;;;;;;;9.77;5.90;;;;;;;5.93;71.80;99392.97;345465;28;1682;-70
2022/11/28 00:58:48;;;;;;;8.13;5.65;;;;;;;5.92;72.54;99391.28;344834;28;1803;-70
2022/11/28 00:59:00;;;;;;;8.50;5.75;;;;;;;5.89;72.45;99396.50;344863;28;1040;-70
2022/11/28 00:59:12;;;;;;;8.32;5.93;;;;;;;5.90;72.43;99393.03;344036;28;1803;-70
2022/11/28 00:59:24;;;;;;;8.18;6.18;;;;;;;5.91;72.24;99393.88;344482;28;2093;-70
2022/11/28 00:59:36;;;;;;;7.78;5.82;;;;;;;5.86;72.48;99388.81;344836;28;1150;-70
2022/11/28 00:59:49;;;;;;;7.32;5.55;;;;;;;5.88;72.80;99389.63;345399;28;1488;-71
2022/11/28 01:00:01;;;;;;;7.90;5.60;;;;;;;5.91;72.31;99393.88;344713;28;1076;-71
2022/11/28 01:00:13;;;;;;;8.35;5.78;;;;;;;5.90;72.43;99387.03;344161;28;1452;-70
2022/11/28 01:00:25;;;;;;;8.70;5.90;;;;;;;5.90;72.39;99387.88;344552;28;1083;-70
2022/11/28 01:00:38;;;;;;;8.23;5.88;;;;;;;5.92;72.67;99393.88;345021;28;953;-70
2022/11/28 01:00:50;;;;;;;8.38;5.93;;;;;;;5.94;72.84;99386.94;345277;28;1160;-70
2022/11/28 01:01:26;;;;;;;7.72;5.85;;;;;;;5.96;72.50;99386.97;345141;28;1149;-71
2022/11/28 01:01:42;;;;;;;8.13;5.72;;;;;;;5.93;72.49;99387.81;344678;28;1471;-70
2022/11/28 01:01:54;;;;;;;8.38;5.80;;;;;;;5.96;72.60;99392.97;341965;28;1906;-70
2022/11/28 01:02:06;;;;;;;8.38;5.93;;;;;;;5.96;72.39;99385.22;342504;28;1860;-71
2022/11/28 01:02:18;;;;;;;8.18;5.85;;;;;;;5.92;72.75;99383.56;342578;28;1193;-71
2022/11/28 01:02:30;;;;;;;8.35;5.93;;;;;;;5.94;72.78;99383.53;343433;28;1076;-71